CheckWX is a tool to help pilots better visualize weather data.  It is not intended as a substitute for an official pre-flight weather briefing.

14:53:43 UTC

KLVK METAR
Livermore Municipal Airport
Livermore, California, USA
Current

1 hour ago

KLVK 221353Z 10003KT 6SM BR CLR 07/06 A3009 RMK AO2 SLP188 T00720056
Observed
Apr-22 @ 13:53 UTC
Wind
  • 100° at 3 KTS
Visibility
6 SM
Flight Rules
VFR
Conditions
Mist
Cloud Levels
  • Clear skies
Temperature
C / 45°F
Dewpoint
C / 43°F
Humidity
93%
Altimeter
30.09" Hg
Pressure
1018.92 hPa
Previous

1 hour ago

KLVK 221353Z COR 10003KT 6SM BR CLR 07/06 A3009 RMK AO2 SLP188 T00720056
Observed
Apr-22 @ 13:53 UTC
Wind
  • 100° at 3 KTS
Visibility
6 SM
Flight Rules
VFR
Conditions
Mist
Cloud Levels
  • Clear skies
Temperature
C / 45°F
Dewpoint
C / 43°F
Humidity
93%
Altimeter
30.09" Hg
Pressure
1018.92 hPa
Previous

2 hours ago

KLVK 221253Z AUTO 00000KT 7SM CLR 07/05 A3008 RMK AO2 SLP183 T00670050
Observed
Apr-22 @ 12:53 UTC
Visibility
7 SM
Flight Rules
VFR
Cloud Levels
  • Clear skies
Temperature
C / 45°F
Dewpoint
C / 41°F
Humidity
87%
Altimeter
30.08" Hg
Pressure
1018.62 hPa